Time;durP1;ratioP1;P1;durP2;ratioP2;P2;SDS_P1;SDS_P2;PMS_P1;PMS_P2;Temp;Humidity;BMP_temperature;BMP_pressure;BME280_temperature;BME280_humidity;BME280_pressure;Samples;Min_cycle;Max_cycle;Signal;HPM_P1;HPM_P2
2024/01/21 00:01:46;;;;;;;197.83;62.27;;;;;;;;;;4994638;28;20668;-43
2024/01/21 00:04:12;;;;;;;199.30;61.72;;;;;;;;;;4994757;28;20450;-43
2024/01/21 00:06:38;;;;;;;201.95;64.43;;;;;;;;;;4994825;28;20250;-42
2024/01/21 00:09:04;;;;;;;200.30;61.42;;;;;;;;;;4994573;28;20680;-43
2024/01/21 00:11:30;;;;;;;203.97;66.13;;;;;;;;;;4994470;28;20216;-42
2024/01/21 00:13:56;;;;;;;203.33;65.40;;;;;;;;;;4993695;28;20397;-42
2024/01/21 00:16:22;;;;;;;200.57;62.03;;;;;;;;;;4993871;28;20410;-42
2024/01/21 00:18:48;;;;;;;204.63;67.68;;;;;;;;;;4994087;28;20404;-42
2024/01/21 00:21:14;;;;;;;199.18;62.30;;;;;;;;;;4990590;28;20280;-42
2024/01/21 00:23:40;;;;;;;199.07;63.10;;;;;;;;;;4994477;28;20552;-42
2024/01/21 00:26:06;;;;;;;199.60;62.45;;;;;;;;;;4994803;28;20416;-42
2024/01/21 00:28:32;;;;;;;198.37;60.50;;;;;;;;;;4994222;28;20211;-41
2024/01/21 00:30:58;;;;;;;200.53;62.07;;;;;;;;;;4996086;28;20490;-42
2024/01/21 00:33:24;;;;;;;201.32;63.22;;;;;;;;;;4994341;28;20933;-42
2024/01/21 00:35:50;;;;;;;203.10;64.93;;;;;;;;;;4994201;28;20231;-42
2024/01/21 00:38:16;;;;;;;201.77;63.00;;;;;;;;;;4994222;28;20416;-42
2024/01/21 00:40:42;;;;;;;202.40;62.50;;;;;;;;;;4993815;28;20892;-42
2024/01/21 00:43:08;;;;;;;200.70;62.40;;;;;;;;;;4994043;28;20189;-42
2024/01/21 00:45:34;;;;;;;200.55;62.22;;;;;;;;;;4994441;28;20424;-43
2024/01/21 00:48:00;;;;;;;202.07;64.00;;;;;;;;;;4994124;28;20181;-42
2024/01/21 00:50:26;;;;;;;203.30;64.18;;;;;;;;;;4993846;28;20400;-42
2024/01/21 00:52:52;;;;;;;201.40;61.67;;;;;;;;;;4993969;28;20189;-41
2024/01/21 00:55:19;;;;;;;198.52;61.45;;;;;;;;;;4993849;28;20179;-42
2024/01/21 00:57:45;;;;;;;198.77;64.07;;;;;;;;;;5021566;23;20220;-46
2024/01/21 01:00:11;;;;;;;206.65;67.00;;;;;;;;;;5008810;28;20227;-46
2024/01/21 01:02:37;;;;;;;203.55;65.25;;;;;;;;;;5013278;28;20179;-46
2024/01/21 01:05:03;;;;;;;203.98;64.45;;;;;;;;;;5013224;28;20203;-47
2024/01/21 01:07:29;;;;;;;202.85;64.05;;;;;;;;;;5007365;28;20197;-47
2024/01/21 01:09:55;;;;;;;202.93;64.05;;;;;;;;;;4993236;28;20200;-47
2024/01/21 01:12:21;;;;;;;202.77;63.77;;;;;;;;;;4993472;28;20248;-46
2024/01/21 01:14:47;;;;;;;202.03;62.50;;;;;;;;;;4993430;28;20424;-46
2024/01/21 01:17:13;;;;;;;201.07;62.93;;;;;;;;;;4993429;28;20993;-46
2024/01/21 01:19:39;;;;;;;202.52;65.40;;;;;;;;;;4992993;28;20773;-46
2024/01/21 01:22:09;;;;;;;203.13;63.92;;;;;;;;;;4993166;28;20188;-46
2024/01/21 01:24:35;;;;;;;202.85;63.22;;;;;;;;;;4993176;28;20529;-46
2024/01/21 01:27:01;;;;;;;203.05;63.42;;;;;;;;;;4993287;28;20173;-46
2024/01/21 01:29:27;;;;;;;199.83;62.37;;;;;;;;;;4993228;28;20201;-47
2024/01/21 01:31:53;;;;;;;198.77;61.17;;;;;;;;;;4993028;28;20448;-47
2024/01/21 01:34:19;;;;;;;201.40;63.60;;;;;;;;;;4993166;28;20413;-47
2024/01/21 01:36:45;;;;;;;201.37;63.00;;;;;;;;;;4993196;28;20470;-47
2024/01/21 01:39:11;;;;;;;204.07;66.73;;;;;;;;;;4992957;28;20423;-47
2024/01/21 01:41:37;;;;;;;198.48;61.95;;;;;;;;;;4992867;28;20408;-46
2024/01/21 01:44:03;;;;;;;193.70;62.47;;;;;;;;;;4993016;28;20243;-47
2024/01/21 01:46:29;;;;;;;53.67;48.63;;;;;;;;;;4993115;28;20401;-47
2024/01/21 01:48:55;;;;;;;52.23;48.17;;;;;;;;;;4992790;28;20262;-47
2024/01/21 01:51:22;;;;;;;48.88;45.42;;;;;;;;;;4992788;28;20455;-47
2024/01/21 01:53:48;;;;;;;154.25;59.15;;;;;;;;;;4992411;28;20187;-46
2024/01/21 01:56:14;;;;;;;202.85;64.80;;;;;;;;;;4992844;28;20254;-47
2024/01/21 01:58:41;;;;;;;190.57;60.80;;;;;;;;;;4992590;28;20208;-47
2024/01/21 02:01:07;;;;;;;200.35;63.78;;;;;;;;;;4992261;28;20181;-47
2024/01/21 02:03:33;;;;;;;200.73;62.67;;;;;;;;;;4992202;28;20303;-47
2024/01/21 02:05:59;;;;;;;202.43;64.87;;;;;;;;;;4992048;28;20416;-47
2024/01/21 02:08:25;;;;;;;201.40;62.27;;;;;;;;;;4992328;28;20444;-47
2024/01/21 02:10:51;;;;;;;199.25;62.58;;;;;;;;;;4992148;28;20451;-47
2024/01/21 02:13:17;;;;;;;204.07;66.10;;;;;;;;;;4992478;28;20177;-46
2024/01/21 02:15:43;;;;;;;148.70;57.07;;;;;;;;;;4992360;28;20448;-47
2024/01/21 02:18:09;;;;;;;204.32;64.90;;;;;;;;;;4992350;28;20444;-47
2024/01/21 02:20:35;;;;;;;202.93;65.07;;;;;;;;;;4992245;28;20169;-46
2024/01/21 02:23:04;;;;;;;202.52;61.88;;;;;;;;;;4992413;28;20656;-47
2024/01/21 02:25:30;;;;;;;203.35;62.75;;;;;;;;;;4992595;28;20166;-47
2024/01/21 02:27:55;;;;;;;205.47;64.70;;;;;;;;;;4992240;28;20192;-47
2024/01/21 02:30:32;;;;;;;211.73;71.80;;;;;;;;;;4992004;28;20400;-46
2024/01/21 02:32:58;;;;;;;205.25;62.42;;;;;;;;;;4991453;28;20407;-46
2024/01/21 02:35:24;;;;;;;213.70;62.67;;;;;;;;;;4992465;28;20171;-46
2024/01/21 02:37:50;;;;;;;215.57;65.17;;;;;;;;;;4992339;28;20189;-46
2024/01/21 02:40:16;;;;;;;210.43;64.30;;;;;;;;;;4992027;28;20396;-47
2024/01/21 02:42:42;;;;;;;205.37;62.43;;;;;;;;;;4992357;28;20408;-47
2024/01/21 02:45:08;;;;;;;212.75;63.28;;;;;;;;;;4992367;28;20887;-47
2024/01/21 02:47:34;;;;;;;213.77;63.00;;;;;;;;;;4992355;28;20189;-47
2024/01/21 02:50:00;;;;;;;214.63;63.00;;;;;;;;;;4992285;28;20208;-47
2024/01/21 02:52:26;;;;;;;214.77;63.67;;;;;;;;;;4992124;28;20470;-47
2024/01/21 02:54:52;;;;;;;215.13;64.07;;;;;;;;;;4992175;28;20412;-47
2024/01/21 02:57:18;;;;;;;213.30;62.63;;;;;;;;;;4992365;28;20436;-46
2024/01/21 02:59:43;;;;;;;213.57;63.07;;;;;;;;;;4992379;28;20487;-46
2024/01/21 03:02:09;;;;;;;214.80;63.23;;;;;;;;;;4991931;28;20439;-46
2024/01/21 03:04:35;;;;;;;193.07;59.93;;;;;;;;;;4992356;28;20404;-45
2024/01/21 03:07:01;;;;;;;203.70;63.13;;;;;;;;;;4992088;28;20919;-46
2024/01/21 03:09:27;;;;;;;199.97;62.47;;;;;;;;;;4986573;28;20192;-46
2024/01/21 03:11:56;;;;;;;199.98;62.60;;;;;;;;;;4991692;28;20891;-47
2024/01/21 03:14:22;;;;;;;200.52;62.53;;;;;;;;;;4992044;28;20496;-47
2024/01/21 03:16:48;;;;;;;200.73;62.77;;;;;;;;;;4992057;28;20207;-47
2024/01/21 03:19:14;;;;;;;193.27;62.40;;;;;;;;;;4992150;28;20907;-47
2024/01/21 03:21:40;;;;;;;198.77;62.70;;;;;;;;;;4991839;28;20490;-47
2024/01/21 03:24:06;;;;;;;198.75;60.55;;;;;;;;;;4992358;28;20173;-47
2024/01/21 03:26:32;;;;;;;201.43;63.45;;;;;;;;;;4991979;28;20169;-47
2024/01/21 03:28:58;;;;;;;199.93;62.38;;;;;;;;;;4991971;28;20205;-46
2024/01/21 03:31:24;;;;;;;200.37;61.97;;;;;;;;;;4991660;28;20656;-46
2024/01/21 03:33:50;;;;;;;200.10;62.93;;;;;;;;;;4991912;28;20895;-46
2024/01/21 03:36:16;;;;;;;201.37;62.03;;;;;;;;;;4991933;28;20818;-47
2024/01/21 03:38:44;;;;;;;198.25;61.05;;;;;;;;;;4991742;28;20423;-46
2024/01/21 03:41:10;;;;;;;199.70;62.10;;;;;;;;;;4991624;28;20644;-46
2024/01/21 03:43:36;;;;;;;200.55;62.80;;;;;;;;;;4993608;28;20169;-47
2024/01/21 03:46:02;;;;;;;200.17;63.03;;;;;;;;;;4995423;28;20275;-47
2024/01/21 03:48:28;;;;;;;199.15;63.50;;;;;;;;;;4995261;28;20464;-46
2024/01/21 03:50:54;;;;;;;200.47;64.77;;;;;;;;;;4994973;28;20260;-47
2024/01/21 03:53:20;;;;;;;198.90;63.30;;;;;;;;;;4995223;28;20404;-47
2024/01/21 03:55:46;;;;;;;198.60;62.08;;;;;;;;;;4995299;28;20813;-46
2024/01/21 03:58:12;;;;;;;101.23;46.40;;;;;;;;;;4995088;28;20284;-46
2024/01/21 04:00:38;;;;;;;197.33;64.10;;;;;;;;;;4994882;28;20900;-46
2024/01/21 04:03:04;;;;;;;196.73;62.40;;;;;;;;;;4995033;28;20409;-47
2024/01/21 04:05:30;;;;;;;199.55;62.17;;;;;;;;;;4995075;28;20416;-47
2024/01/21 04:07:56;;;;;;;199.60;62.43;;;;;;;;;;4995193;28;20746;-47
2024/01/21 04:10:22;;;;;;;200.25;65.18;;;;;;;;;;4995307;28;20403;-46
2024/01/21 04:12:48;;;;;;;197.23;61.63;;;;;;;;;;4994966;28;20173;-46
2024/01/21 04:15:14;;;;;;;196.25;62.60;;;;;;;;;;4994922;28;20768;-47
2024/01/21 04:17:40;;;;;;;198.95;62.75;;;;;;;;;;4994766;28;20714;-46
2024/01/21 04:20:08;;;;;;;199.20;65.23;;;;;;;;;;4994621;28;20177;-46
2024/01/21 04:22:34;;;;;;;199.65;62.45;;;;;;;;;;4994589;28;20495;-47
2024/01/21 04:25:00;;;;;;;199.25;64.32;;;;;;;;;;4994918;28;20248;-46
2024/01/21 04:27:26;;;;;;;199.90;63.73;;;;;;;;;;4994619;28;20698;-46
2024/01/21 04:29:52;;;;;;;200.77;64.17;;;;;;;;;;4994545;28;21054;-46
2024/01/21 04:32:18;;;;;;;199.50;62.87;;;;;;;;;;4994739;28;20910;-46
2024/01/21 04:34:44;;;;;;;201.57;64.38;;;;;;;;;;4994509;28;20403;-46
2024/01/21 04:37:10;;;;;;;199.73;63.55;;;;;;;;;;4994315;28;20195;-46
2024/01/21 04:39:36;;;;;;;199.73;64.05;;;;;;;;;;4994517;28;20168;-46
2024/01/21 04:42:02;;;;;;;199.13;63.60;;;;;;;;;;4994072;28;20537;-46
2024/01/21 04:44:28;;;;;;;197.90;60.42;;;;;;;;;;4994423;28;20412;-47
2024/01/21 04:46:54;;;;;;;199.32;62.60;;;;;;;;;;4994197;28;20188;-46
2024/01/21 04:49:20;;;;;;;200.67;64.97;;;;;;;;;;4994170;28;20193;-46
2024/01/21 04:51:46;;;;;;;198.32;60.22;;;;;;;;;;4994406;28;20404;-46
2024/01/21 04:54:12;;;;;;;201.38;63.83;;;;;;;;;;4993570;28;20165;-46
2024/01/21 04:56:38;;;;;;;200.57;62.87;;;;;;;;;;4993898;28;20652;-46
2024/01/21 04:59:04;;;;;;;193.52;63.72;;;;;;;;;;4993970;28;20440;-46
2024/01/21 05:01:30;;;;;;;198.77;61.70;;;;;;;;;;4993770;28;20180;-46
2024/01/21 05:03:56;;;;;;;198.40;60.20;;;;;;;;;;4993874;28;20495;-46
2024/01/21 05:06:22;;;;;;;199.33;62.03;;;;;;;;;;4994324;28;20416;-46
2024/01/21 05:08:48;;;;;;;199.77;61.90;;;;;;;;;;4994113;28;20478;-46
2024/01/21 05:11:14;;;;;;;200.45;62.88;;;;;;;;;;4993684;28;20432;-47
2024/01/21 05:13:41;;;;;;;201.55;63.42;;;;;;;;;;4993711;28;20204;-46
2024/01/21 05:16:07;;;;;;;199.55;61.55;;;;;;;;;;4993745;28;20170;-46
2024/01/21 05:18:33;;;;;;;202.67;64.37;;;;;;;;;;4993565;28;20199;-46
2024/01/21 05:20:59;;;;;;;203.37;65.50;;;;;;;;;;4990318;28;20467;-46
2024/01/21 05:23:25;;;;;;;200.98;63.17;;;;;;;;;;4993220;28;20412;-46
2024/01/21 05:25:53;;;;;;;198.87;62.90;;;;;;;;;;4993355;28;20178;-46
2024/01/21 05:28:19;;;;;;;199.82;62.28;;;;;;;;;;4993099;28;20478;-47
2024/01/21 05:30:45;;;;;;;201.27;66.13;;;;;;;;;;4993354;28;20177;-46
2024/01/21 05:33:11;;;;;;;202.20;65.35;;;;;;;;;;4992986;28;20230;-46
2024/01/21 05:35:37;;;;;;;200.97;65.00;;;;;;;;;;4993210;28;20629;-46
2024/01/21 05:38:04;;;;;;;201.60;64.78;;;;;;;;;;4992867;28;21043;-46
2024/01/21 05:40:30;;;;;;;201.48;63.10;;;;;;;;;;4992883;28;20644;-46
2024/01/21 05:42:56;;;;;;;201.57;62.70;;;;;;;;;;4993126;28;20240;-46
2024/01/21 05:45:22;;;;;;;189.93;63.25;;;;;;;;;;4993042;28;20498;-46
2024/01/21 05:47:48;;;;;;;202.55;66.18;;;;;;;;;;4992742;28;20267;-46
2024/01/21 05:50:14;;;;;;;209.77;72.45;;;;;;;;;;4992682;28;20824;-46
2024/01/21 05:52:40;;;;;;;200.90;62.35;;;;;;;;;;4992794;28;20240;-46
2024/01/21 05:55:07;;;;;;;202.95;65.70;;;;;;;;;;4992828;28;20177;-46
2024/01/21 05:57:33;;;;;;;201.13;63.47;;;;;;;;;;4992589;28;20227;-46
2024/01/21 05:59:59;;;;;;;199.93;63.27;;;;;;;;;;4992698;28;20191;-47
2024/01/21 06:02:25;;;;;;;202.15;65.18;;;;;;;;;;4992302;28;20411;-47
2024/01/21 06:04:51;;;;;;;200.77;63.45;;;;;;;;;;4992725;28;20227;-46
2024/01/21 06:07:18;;;;;;;202.37;66.20;;;;;;;;;;4992556;28;20208;-47
2024/01/21 06:09:46;;;;;;;201.95;64.95;;;;;;;;;;4992573;28;20464;-46
2024/01/21 06:12:11;;;;;;;203.48;66.20;;;;;;;;;;4986063;28;20204;-47
2024/01/21 06:14:37;;;;;;;200.27;61.95;;;;;;;;;;4992646;28;20196;-46
2024/01/21 06:17:03;;;;;;;200.57;62.45;;;;;;;;;;4992201;28;20633;-46
2024/01/21 06:19:29;;;;;;;200.18;62.38;;;;;;;;;;4992556;28;20336;-46
2024/01/21 06:21:55;;;;;;;199.97;62.30;;;;;;;;;;4992226;28;20235;-47
2024/01/21 06:24:21;;;;;;;200.63;65.10;;;;;;;;;;4992379;28;20415;-47
2024/01/21 06:26:47;;;;;;;197.30;60.37;;;;;;;;;;4992355;28;20416;-47
2024/01/21 06:29:13;;;;;;;197.57;60.33;;;;;;;;;;4992252;28;20472;-47
2024/01/21 06:31:39;;;;;;;201.93;65.10;;;;;;;;;;4992037;28;20183;-46
2024/01/21 06:34:05;;;;;;;199.57;62.55;;;;;;;;;;4992087;28;20416;-46
2024/01/21 06:36:31;;;;;;;200.13;63.57;;;;;;;;;;4992384;28;20261;-45
2024/01/21 06:38:58;;;;;;;199.70;62.23;;;;;;;;;;4992157;28;20852;-45
2024/01/21 06:41:24;;;;;;;198.02;61.65;;;;;;;;;;4992013;28;20404;-45
2024/01/21 06:43:50;;;;;;;199.07;61.55;;;;;;;;;;4992166;28;20196;-45
2024/01/21 06:46:17;;;;;;;198.53;64.07;;;;;;;;;;4992220;28;20649;-46
2024/01/21 06:48:43;;;;;;;198.68;61.05;;;;;;;;;;4991915;28;20466;-46
2024/01/21 06:51:11;;;;;;;198.53;61.90;;;;;;;;;;4991877;28;20278;-45
2024/01/21 06:53:37;;;;;;;199.85;62.63;;;;;;;;;;4992025;28;20491;-46
2024/01/21 06:56:07;;;;;;;197.82;63.55;;;;;;;;;;4992158;28;20173;-45
2024/01/21 06:58:33;;;;;;;198.45;62.13;;;;;;;;;;5035569;23;20227;-44
2024/01/21 07:00:59;;;;;;;195.38;60.50;;;;;;;;;;5010922;28;20175;-44
2024/01/21 07:03:25;;;;;;;199.98;64.60;;;;;;;;;;5011505;28;20161;-44
2024/01/21 07:05:51;;;;;;;196.55;61.40;;;;;;;;;;5011587;28;20553;-43
2024/01/21 07:08:17;;;;;;;198.07;64.33;;;;;;;;;;5001678;28;20200;-44
2024/01/21 07:10:43;;;;;;;139.93;50.67;;;;;;;;;;4992010;28;20404;-43
2024/01/21 07:13:09;;;;;;;141.77;53.33;;;;;;;;;;4991780;28;20185;-44
2024/01/21 07:15:35;;;;;;;139.03;51.30;;;;;;;;;;4991986;28;20260;-44
2024/01/21 07:18:01;;;;;;;141.93;54.30;;;;;;;;;;4992689;28;20432;-44
2024/01/21 07:20:28;;;;;;;196.43;60.92;;;;;;;;;;4995547;28;20478;-44
2024/01/21 07:22:55;;;;;;;198.15;63.90;;;;;;;;;;4995642;28;20224;-44
2024/01/21 07:25:21;;;;;;;199.82;63.80;;;;;;;;;;4995869;28;20176;-44
2024/01/21 07:27:48;;;;;;;197.13;61.67;;;;;;;;;;4995670;28;20265;-44
2024/01/21 07:30:14;;;;;;;205.38;67.80;;;;;;;;;;4995384;28;20224;-44
2024/01/21 07:32:41;;;;;;;191.98;62.13;;;;;;;;;;4995630;28;20175;-44
2024/01/21 07:35:11;;;;;;;199.40;62.38;;;;;;;;;;4995632;28;20173;-44
2024/01/21 07:37:37;;;;;;;199.98;63.97;;;;;;;;;;4995546;28;20196;-45
2024/01/21 07:40:04;;;;;;;198.20;64.18;;;;;;;;;;4995757;28;20188;-44
2024/01/21 07:42:31;;;;;;;197.73;63.20;;;;;;;;;;4995429;28;20180;-44
2024/01/21 07:44:56;;;;;;;195.32;62.47;;;;;;;;;;4995437;28;20173;-44
2024/01/21 07:47:22;;;;;;;198.50;63.40;;;;;;;;;;4995355;28;20227;-44
2024/01/21 07:49:48;;;;;;;197.97;62.30;;;;;;;;;;4995291;28;20563;-44
2024/01/21 07:52:16;;;;;;;199.38;63.20;;;;;;;;;;4995053;28;20446;-44
2024/01/21 07:54:42;;;;;;;198.77;63.10;;;;;;;;;;4995270;28;20165;-45
2024/01/21 07:57:08;;;;;;;199.77;65.05;;;;;;;;;;4995229;28;20172;-44
2024/01/21 07:59:34;;;;;;;195.30;60.27;;;;;;;;;;4995105;28;20191;-44
2024/01/21 08:02:00;;;;;;;193.60;60.08;;;;;;;;;;4994924;28;20405;-44
2024/01/21 08:04:26;;;;;;;195.77;61.65;;;;;;;;;;4995028;28;20172;-44
2024/01/21 08:06:52;;;;;;;194.10;61.47;;;;;;;;;;4995031;28;20223;-44
2024/01/21 08:09:19;;;;;;;196.33;61.83;;;;;;;;;;4994831;28;20211;-44
2024/01/21 08:11:45;;;;;;;195.95;61.40;;;;;;;;;;4994804;28;20405;-44
2024/01/21 08:14:11;;;;;;;196.48;60.83;;;;;;;;;;4994906;28;20288;-44
2024/01/21 08:16:37;;;;;;;194.70;60.08;;;;;;;;;;4994999;28;20169;-45
2024/01/21 08:19:03;;;;;;;192.35;61.05;;;;;;;;;;4994697;28;20185;-44
2024/01/21 08:21:30;;;;;;;199.77;64.27;;;;;;;;;;4994521;28;20258;-44
2024/01/21 08:23:56;;;;;;;201.65;65.00;;;;;;;;;;4992995;28;20978;-44
2024/01/21 08:26:22;;;;;;;196.85;60.95;;;;;;;;;;4991633;28;20180;-44
2024/01/21 08:28:48;;;;;;;197.65;61.38;;;;;;;;;;4993766;28;20220;-44
2024/01/21 08:31:14;;;;;;;192.53;61.13;;;;;;;;;;4993429;28;20187;-44
2024/01/21 08:33:40;;;;;;;196.00;60.85;;;;;;;;;;4994292;28;20907;-44
2024/01/21 08:36:07;;;;;;;199.07;64.57;;;;;;;;;;4994367;28;20185;-44
2024/01/21 08:38:33;;;;;;;198.27;62.15;;;;;;;;;;4994234;28;20429;-44
2024/01/21 08:40:59;;;;;;;195.40;62.22;;;;;;;;;;4994203;28;20196;-44
2024/01/21 08:43:25;;;;;;;199.57;62.40;;;;;;;;;;4994204;28;20641;-44
2024/01/21 08:45:51;;;;;;;198.73;64.03;;;;;;;;;;4994088;28;20184;-44
2024/01/21 08:48:17;;;;;;;201.77;64.30;;;;;;;;;;4993911;28;20476;-44
2024/01/21 08:50:44;;;;;;;150.57;54.03;;;;;;;;;;4993829;28;20417;-44
2024/01/21 08:53:10;;;;;;;198.57;63.10;;;;;;;;;;4994115;28;20409;-44
2024/01/21 08:55:36;;;;;;;203.03;65.40;;;;;;;;;;4993931;28;20181;-45
2024/01/21 08:58:02;;;;;;;201.15;64.82;;;;;;;;;;4993754;28;20452;-44
2024/01/21 09:00:28;;;;;;;205.85;67.90;;;;;;;;;;4993616;28;20165;-44
2024/01/21 09:02:54;;;;;;;203.15;65.75;;;;;;;;;;4993859;28;20205;-44
2024/01/21 09:05:20;;;;;;;200.98;65.45;;;;;;;;;;4992408;28;20181;-43
2024/01/21 09:07:46;;;;;;;201.87;63.93;;;;;;;;;;4993678;28;20212;-44
2024/01/21 09:10:13;;;;;;;199.17;62.13;;;;;;;;;;4993411;28;20463;-44
2024/01/21 09:12:39;;;;;;;201.77;63.80;;;;;;;;;;4993677;28;20830;-44
2024/01/21 09:15:06;;;;;;;204.95;65.57;;;;;;;;;;4993471;28;20204;-44
2024/01/21 09:17:32;;;;;;;201.60;63.85;;;;;;;;;;4993408;28;20201;-44
2024/01/21 09:20:00;;;;;;;202.32;65.00;;;;;;;;;;4993301;28;20169;-44
2024/01/21 09:22:26;;;;;;;204.27;64.60;;;;;;;;;;4993344;28;20173;-44
2024/01/21 09:24:52;;;;;;;204.40;64.37;;;;;;;;;;4993340;28;20181;-44
2024/01/21 09:27:18;;;;;;;205.25;64.95;;;;;;;;;;4993368;28;20908;-43
2024/01/21 09:29:44;;;;;;;207.05;65.97;;;;;;;;;;4993117;28;20201;-44
2024/01/21 09:32:13;;;;;;;203.00;63.30;;;;;;;;;;4992854;28;20181;-44
2024/01/21 09:34:39;;;;;;;205.95;66.65;;;;;;;;;;4993124;28;20435;-44
2024/01/21 09:37:08;;;;;;;204.65;64.10;;;;;;;;;;4993217;28;20181;-44
2024/01/21 09:39:34;;;;;;;204.13;64.45;;;;;;;;;;4993143;28;20173;-43
2024/01/21 09:42:00;;;;;;;202.10;62.77;;;;;;;;;;4992844;28;20264;-44
2024/01/21 09:44:27;;;;;;;208.50;68.07;;;;;;;;;;4985630;28;20909;-44
2024/01/21 09:46:54;;;;;;;206.02;64.40;;;;;;;;;;4993022;28;20223;-44
2024/01/21 09:49:21;;;;;;;206.15;64.57;;;;;;;;;;4993016;28;20220;-44
2024/01/21 09:51:47;;;;;;;206.73;64.18;;;;;;;;;;4992583;28;20172;-44
2024/01/21 09:54:13;;;;;;;206.20;64.57;;;;;;;;;;4993021;28;20284;-44
2024/01/21 09:56:39;;;;;;;207.10;63.90;;;;;;;;;;4992932;28;20161;-44
2024/01/21 09:59:05;;;;;;;208.52;64.22;;;;;;;;;;4992784;28;20731;-45
2024/01/21 10:01:32;;;;;;;207.07;64.78;;;;;;;;;;4992579;28;20169;-44
2024/01/21 10:03:58;;;;;;;207.55;65.82;;;;;;;;;;4992863;28;20169;-44
2024/01/21 10:06:24;;;;;;;204.47;63.47;;;;;;;;;;4992814;28;20169;-44
2024/01/21 10:08:50;;;;;;;206.05;63.88;;;;;;;;;;4992875;28;20498;-44
2024/01/21 10:11:16;;;;;;;204.30;63.07;;;;;;;;;;4992518;28;20200;-44
2024/01/21 10:13:42;;;;;;;205.38;63.22;;;;;;;;;;4992646;28;20959;-44
2024/01/21 10:16:12;;;;;;;204.85;62.40;;;;;;;;;;4992660;28;20173;-44
2024/01/21 10:18:38;;;;;;;206.52;63.25;;;;;;;;;;4992856;28;20258;-44
2024/01/21 10:21:05;;;;;;;204.32;62.67;;;;;;;;;;4992404;28;20199;-44
2024/01/21 10:23:32;;;;;;;207.30;63.55;;;;;;;;;;4986902;28;20174;-44
2024/01/21 10:25:59;;;;;;;208.02;65.05;;;;;;;;;;4992458;28;20213;-44
2024/01/21 10:28:26;;;;;;;207.07;64.72;;;;;;;;;;4992775;28;20228;-44
2024/01/21 10:30:52;;;;;;;208.65;63.25;;;;;;;;;;4992688;28;20169;-45
2024/01/21 10:33:18;;;;;;;207.63;63.80;;;;;;;;;;4992557;28;20169;-45
2024/01/21 10:35:44;;;;;;;206.48;64.00;;;;;;;;;;4992644;28;20531;-45
2024/01/21 10:40:47;;;;;;;212.38;72.50;;;;;;;;;;5240367;23;20234;-43
2024/01/21 10:43:14;;;;;;;199.85;63.55;;;;;;;;;;5010892;28;20245;-43
2024/01/21 10:45:45;;;;;;;200.25;64.07;;;;;;;;;;5011921;28;20239;-42
2024/01/21 10:48:14;;;;;;;201.90;62.80;;;;;;;;;;5007884;28;20184;-41
2024/01/21 10:50:46;;;;;;;205.45;65.22;;;;;;;;;;4990134;28;20193;-42
2024/01/21 10:53:13;;;;;;;201.18;63.95;;;;;;;;;;4993669;28;20199;-43
2024/01/21 10:55:39;;;;;;;203.20;63.33;;;;;;;;;;4996350;28;20533;-42
2024/01/21 10:58:06;;;;;;;203.63;62.95;;;;;;;;;;4996228;28;20160;-42
2024/01/21 11:00:32;;;;;;;201.35;61.35;;;;;;;;;;4995743;28;20212;-42
2024/01/21 11:03:16;;;;;;;206.73;65.37;;;;;;;;;;4996359;28;20691;-42
2024/01/21 11:05:42;;;;;;;198.75;60.72;;;;;;;;;;4992975;28;20438;-42
2024/01/21 11:08:09;;;;;;;147.35;53.05;;;;;;;;;;4995949;28;20263;-42
2024/01/21 11:10:38;;;;;;;197.95;65.32;;;;;;;;;;4994075;28;20955;-42
2024/01/21 11:13:06;;;;;;;195.68;62.17;;;;;;;;;;4995971;28;20165;-42
2024/01/21 11:15:32;;;;;;;196.50;62.28;;;;;;;;;;5001142;28;20234;-42
2024/01/21 11:18:11;;;;;;;196.48;61.28;;;;;;;;;;5000310;28;20193;-42
2024/01/21 11:20:39;;;;;;;196.52;62.42;;;;;;;;;;4995279;28;20199;-42
2024/01/21 11:23:14;;;;;;;199.13;62.28;;;;;;;;;;4995477;28;20196;-42
2024/01/21 11:25:40;;;;;;;198.85;64.57;;;;;;;;;;4995694;28;20577;-42
2024/01/21 11:28:23;;;;;;;195.97;61.57;;;;;;;;;;4995446;28;20231;-42
2024/01/21 11:30:53;;;;;;;195.25;61.75;;;;;;;;;;4995275;28;20435;-42
2024/01/21 11:33:23;;;;;;;197.35;62.58;;;;;;;;;;4995379;28;20165;-42
2024/01/21 11:35:49;;;;;;;198.90;62.60;;;;;;;;;;4995493;28;20536;-42
2024/01/21 11:38:15;;;;;;;201.60;62.25;;;;;;;;;;4995526;28;20636;-42
2024/01/21 11:40:41;;;;;;;202.93;62.83;;;;;;;;;;4994856;28;20201;-42
2024/01/21 11:43:07;;;;;;;61.27;56.17;;;;;;;;;;4995272;28;20186;-42
2024/01/21 11:45:33;;;;;;;57.43;52.73;;;;;;;;;;4995136;28;20926;-42
2024/01/21 11:47:59;;;;;;;54.92;50.13;;;;;;;;;;4995080;28;20837;-42
2024/01/21 11:50:25;;;;;;;204.20;62.70;;;;;;;;;;4995088;28;20212;-42
2024/01/21 11:52:51;;;;;;;205.68;62.85;;;;;;;;;;4995073;28;20412;-42
2024/01/21 11:55:21;;;;;;;200.50;62.50;;;;;;;;;;4995088;28;20169;-42
2024/01/21 11:57:47;;;;;;;202.38;62.05;;;;;;;;;;4995074;28;20169;-42
2024/01/21 12:00:14;;;;;;;204.33;61.17;;;;;;;;;;4994540;28;20264;-42
2024/01/21 12:02:40;;;;;;;204.55;63.08;;;;;;;;;;4995184;28;20455;-42
2024/01/21 12:05:06;;;;;;;204.97;61.53;;;;;;;;;;4994679;28;20220;-42
2024/01/21 12:07:32;;;;;;;205.43;62.03;;;;;;;;;;4994748;28;20494;-42
2024/01/21 12:09:58;;;;;;;205.55;63.80;;;;;;;;;;4994418;28;20213;-42
2024/01/21 12:12:26;;;;;;;205.90;63.00;;;;;;;;;;4997487;28;20176;-42
2024/01/21 12:14:52;;;;;;;205.20;62.70;;;;;;;;;;5014335;28;20164;-42
2024/01/21 12:17:18;;;;;;;154.90;50.07;;;;;;;;;;5014384;28;20168;-42
2024/01/21 12:19:45;;;;;;;206.57;62.00;;;;;;;;;;4996907;28;20436;-42
2024/01/21 12:22:11;;;;;;;207.98;64.63;;;;;;;;;;4993184;28;20787;-42
2024/01/21 12:24:40;;;;;;;205.07;62.13;;;;;;;;;;4994562;28;20272;-42
2024/01/21 12:27:06;;;;;;;206.45;63.05;;;;;;;;;;4994438;28;20503;-42
2024/01/21 12:29:38;;;;;;;204.63;61.40;;;;;;;;;;4993885;28;20300;-42
2024/01/21 12:32:06;;;;;;;203.55;59.60;;;;;;;;;;4994386;28;20927;-42
2024/01/21 12:34:33;;;;;;;205.90;62.63;;;;;;;;;;4994289;28;20602;-42
2024/01/21 12:36:59;;;;;;;209.55;65.53;;;;;;;;;;4992772;28;20177;-42
2024/01/21 12:39:25;;;;;;;204.63;61.57;;;;;;;;;;4994018;28;20520;-42
2024/01/21 12:41:51;;;;;;;205.68;61.28;;;;;;;;;;4994705;28;20931;-41
2024/01/21 12:44:18;;;;;;;207.32;63.95;;;;;;;;;;4994199;28;20173;-41
2024/01/21 12:46:45;;;;;;;208.73;64.32;;;;;;;;;;4994337;28;20299;-42
2024/01/21 12:49:11;;;;;;;206.80;61.42;;;;;;;;;;4994053;28;20602;-42
2024/01/21 12:51:38;;;;;;;204.53;62.30;;;;;;;;;;4996032;28;20159;-43
2024/01/21 12:54:04;;;;;;;205.60;60.92;;;;;;;;;;4993588;28;20971;-42
2024/01/21 12:56:30;;;;;;;208.38;63.08;;;;;;;;;;4994045;28;20173;-42
2024/01/21 12:58:56;;;;;;;211.97;66.10;;;;;;;;;;4993742;28;20184;-42
2024/01/21 13:01:22;;;;;;;204.97;60.27;;;;;;;;;;4993925;28;20404;-43
2024/01/21 13:03:48;;;;;;;207.73;63.50;;;;;;;;;;4994471;28;20404;-42
2024/01/21 13:06:14;;;;;;;206.70;62.80;;;;;;;;;;4993902;28;20587;-43
2024/01/21 13:08:41;;;;;;;207.73;63.38;;;;;;;;;;4993783;28;20448;-43
2024/01/21 13:11:07;;;;;;;205.50;65.13;;;;;;;;;;4995527;28;20185;-43
2024/01/21 13:13:35;;;;;;;204.35;62.60;;;;;;;;;;4994327;28;20645;-42
2024/01/21 13:16:01;;;;;;;204.98;61.53;;;;;;;;;;4994090;28;20239;-42
2024/01/21 13:18:29;;;;;;;210.13;66.82;;;;;;;;;;4993548;28;20169;-42
2024/01/21 13:20:55;;;;;;;203.90;63.55;;;;;;;;;;4993273;28;20539;-42
2024/01/21 13:23:21;;;;;;;205.03;64.93;;;;;;;;;;4993593;28;20173;-42
2024/01/21 13:25:47;;;;;;;205.82;64.97;;;;;;;;;;4991006;28;20566;-42
2024/01/21 13:30:51;;;;;;;207.02;64.80;;;;;;;;;;4985272;28;20203;-42
2024/01/21 13:33:18;;;;;;;204.15;63.50;;;;;;;;;;4993105;28;20664;-43
2024/01/21 13:35:44;;;;;;;206.60;65.20;;;;;;;;;;4991833;28;20184;-42
2024/01/21 13:38:12;;;;;;;170.35;56.28;;;;;;;;;;4993110;28;20735;-42
2024/01/21 13:40:39;;;;;;;84.60;55.00;;;;;;;;;;4991558;28;20224;-42
2024/01/21 13:43:05;;;;;;;43.10;40.55;;;;;;;;;;4993019;28;20196;-43
2024/01/21 13:45:31;;;;;;;51.25;48.33;;;;;;;;;;4993235;28;20192;-42
2024/01/21 13:47:57;;;;;;;69.30;47.05;;;;;;;;;;4993000;28;20180;-42
2024/01/21 13:50:23;;;;;;;202.65;63.45;;;;;;;;;;4992504;28;20570;-42
2024/01/21 13:52:49;;;;;;;205.53;66.13;;;;;;;;;;4992750;28;20252;-42
2024/01/21 13:55:15;;;;;;;204.88;63.85;;;;;;;;;;4991632;28;20774;-42
2024/01/21 13:57:41;;;;;;;203.02;61.75;;;;;;;;;;4992595;28;20183;-42
2024/01/21 14:00:07;;;;;;;207.57;65.60;;;;;;;;;;4990722;28;20279;-43
2024/01/21 14:02:33;;;;;;;204.95;63.42;;;;;;;;;;4992367;28;20491;-42
2024/01/21 14:04:59;;;;;;;208.23;64.90;;;;;;;;;;4991172;28;20535;-42